createdAt,value
2018-02-19T11:55:55.181Z,99.70
2018-02-19T11:58:33.769Z,99.90
2018-02-19T12:01:09.429Z,99.90
2018-02-19T12:03:47.973Z,99.90
2018-02-19T12:06:18.679Z,99.90
2018-02-19T12:08:58.192Z,99.90
2018-02-19T12:53:24.366Z,99.90
2018-02-19T12:55:54.387Z,99.40
2018-02-19T13:01:21.577Z,97.10
2018-02-19T13:18:32.730Z,98.40
2018-02-19T13:21:14.831Z,97.90
2018-02-19T13:32:52.089Z,99.90
2018-02-19T13:35:27.161Z,98.70
2018-02-19T13:56:07.998Z,97.10
2018-02-19T13:58:39.852Z,96.80
2018-02-19T14:01:08.156Z,98.40
2018-02-19T14:24:46.136Z,98.00
2018-02-19T14:30:07.318Z,98.20
2018-02-19T14:32:44.631Z,97.80
2018-02-19T14:40:42.816Z,98.50
2018-02-19T14:43:09.479Z,98.40
2018-02-19T14:45:36.126Z,98.70
2018-02-19T14:48:02.739Z,98.70
2018-02-19T14:50:30.137Z,98.70
2018-02-19T14:52:56.766Z,98.80
2018-02-19T14:55:24.166Z,98.60
2018-02-19T14:57:50.771Z,98.60
2018-02-19T15:00:17.420Z,98.70
2018-02-19T15:02:44.038Z,98.50
2018-02-19T15:05:10.708Z,98.80
2018-02-19T15:07:37.337Z,99.20
2018-02-19T15:10:04.745Z,99.10
2018-02-19T15:12:42.200Z,99.10
2018-02-19T15:15:08.992Z,99.00
2018-02-19T15:17:35.618Z,98.70
2018-02-19T15:20:03.081Z,98.80
2018-02-19T15:22:29.694Z,98.80
2018-02-19T15:24:56.354Z,98.90
2018-02-19T15:27:23.110Z,99.00
2018-02-19T15:29:49.748Z,99.10
2018-02-19T15:32:16.457Z,99.10
2018-02-19T15:34:43.085Z,99.10
2018-02-19T15:37:09.808Z,99.10
2018-02-19T15:39:37.215Z,99.00
2018-02-19T15:42:03.871Z,99.00
2018-02-19T15:44:30.508Z,99.00
2018-02-19T15:46:57.193Z,99.20
2018-02-19T15:49:23.841Z,99.20
2018-02-19T15:51:50.478Z,99.30
2018-02-19T16:23:59.381Z,99.90
2018-02-19T16:26:26.233Z,99.50
2018-02-19T16:28:57.018Z,99.80
2018-02-19T16:31:23.736Z,99.70
2018-02-19T16:33:50.391Z,99.80
2018-02-19T16:36:17.301Z,99.90
2018-02-19T16:38:45.005Z,99.90
2018-02-19T16:41:11.702Z,99.90
2018-02-19T16:43:38.597Z,99.90
2018-02-19T16:46:05.620Z,99.90
2018-02-19T16:48:37.337Z,99.90
2018-02-19T16:51:04.701Z,99.90
2018-02-19T16:53:31.586Z,99.90
2018-02-19T16:55:58.251Z,99.90
2018-02-19T16:58:24.883Z,99.90
2018-02-19T17:00:52.288Z,99.90
2018-02-19T17:03:18.923Z,99.90
2018-02-19T17:05:46.367Z,99.90
2018-02-19T17:08:13.039Z,99.90
2018-02-19T17:10:40.430Z,99.90
2018-02-19T17:19:36.278Z,99.90
2018-02-19T17:22:03.013Z,99.90
2018-02-19T17:24:30.062Z,99.90
2018-02-19T17:32:59.955Z,99.90
2018-02-19T17:35:27.204Z,99.90
2018-02-19T17:37:54.409Z,99.90
2018-02-19T17:40:21.425Z,99.90
2018-02-19T18:00:50.372Z,99.90
2018-02-19T18:24:21.828Z,99.90
2018-02-19T18:26:49.642Z,99.90
2018-02-19T18:29:18.108Z,99.90
2018-02-19T18:32:04.271Z,99.90
2018-02-19T18:34:32.224Z,99.90
2018-02-19T18:37:02.439Z,99.90
2018-02-19T18:39:30.681Z,99.90
2018-02-19T18:42:00.104Z,99.90
2018-02-19T18:44:29.395Z,99.90
2018-02-19T18:46:58.509Z,99.90
2018-02-19T18:49:27.361Z,99.90
2018-02-19T18:51:55.406Z,99.90
2018-02-19T18:54:23.522Z,99.90
2018-02-19T18:56:51.854Z,99.90
2018-02-19T18:59:20.005Z,99.90
2018-02-19T19:01:48.413Z,99.90
2018-02-19T19:04:25.636Z,99.90
2018-02-19T19:06:55.365Z,99.90
2018-02-19T19:09:44.965Z,99.90
2018-02-19T19:12:13.374Z,99.90
2018-02-19T19:14:42.298Z,99.90
2018-02-19T19:17:11.633Z,99.90
2018-02-19T19:19:39.632Z,99.90
2018-02-19T19:22:08.171Z,99.90
2018-02-19T19:24:36.502Z,99.90
2018-02-19T19:27:05.626Z,99.90
2018-02-19T19:29:33.926Z,99.90
2018-02-19T19:32:02.237Z,99.90
2018-02-19T19:34:30.404Z,99.90
2018-02-19T19:36:58.684Z,99.90
2018-02-19T19:39:27.756Z,99.90
2018-02-19T19:41:55.979Z,99.90
2018-02-19T19:44:24.765Z,99.90
2018-02-19T19:46:53.024Z,99.90
2018-02-19T19:49:21.313Z,99.90
2018-02-19T19:51:49.637Z,99.90
2018-02-19T19:54:18.421Z,99.90
2018-02-19T19:56:46.957Z,99.90
2018-02-19T19:59:15.947Z,99.90
2018-02-19T20:01:48.778Z,99.90
2018-02-19T20:04:17.110Z,99.90
2018-02-19T20:06:45.601Z,99.90
2018-02-19T20:09:14.705Z,99.90
2018-02-19T20:11:43.139Z,99.90
2018-02-19T20:14:11.547Z,99.90
2018-02-19T20:16:40.621Z,99.90
2018-02-19T20:19:22.177Z,99.90
2018-02-19T20:21:50.571Z,99.90
2018-02-19T20:24:18.814Z,99.90
2018-02-19T20:26:47.355Z,99.90
2018-02-19T20:29:15.619Z,99.90
2018-02-19T20:31:43.927Z,99.90
2018-02-19T20:34:12.306Z,99.90
2018-02-19T20:36:40.537Z,99.90
2018-02-19T20:39:08.758Z,99.90
2018-02-19T20:41:38.987Z,99.90
2018-02-19T20:44:07.326Z,99.90
2018-02-19T20:46:35.770Z,99.90
2018-02-19T20:49:09.531Z,99.90
2018-02-19T20:51:37.899Z,99.90
2018-02-19T20:54:07.034Z,99.90
2018-02-19T20:56:35.417Z,99.90
2018-02-19T20:59:03.827Z,99.90
2018-02-19T21:01:35.058Z,99.90
2018-02-19T21:04:04.128Z,99.90
2018-02-19T21:06:32.566Z,99.90
2018-02-19T21:09:00.852Z,99.90
2018-02-19T21:11:31.251Z,99.90
2018-02-19T21:14:00.701Z,99.90
2018-02-19T21:16:38.737Z,99.90
2018-02-19T21:19:06.776Z,99.90
2018-02-19T21:21:36.042Z,99.90
2018-02-19T21:24:04.256Z,99.90
2018-02-19T21:26:53.543Z,99.90
2018-02-19T21:29:21.709Z,99.90
2018-02-19T21:31:49.927Z,99.90
2018-02-19T21:34:18.962Z,99.90
2018-02-19T21:36:47.265Z,99.90
2018-02-19T21:39:15.452Z,99.90
2018-02-19T21:41:43.735Z,99.90
2018-02-19T21:44:11.556Z,99.90
2018-02-19T21:46:39.778Z,99.90
2018-02-19T21:49:07.939Z,99.90
2018-02-19T21:51:35.905Z,99.90
2018-02-19T21:54:22.173Z,99.90
2018-02-19T21:56:50.127Z,99.90
2018-02-19T21:59:17.477Z,99.90
2018-02-19T22:01:44.100Z,99.90
2018-02-19T22:04:11.172Z,99.90
2018-02-19T22:06:38.214Z,99.90
2018-02-19T22:09:05.959Z,99.90
2018-02-19T22:11:32.581Z,99.90
2018-02-19T22:14:02.067Z,99.90
2018-02-19T22:16:41.094Z,99.90
2018-02-19T22:19:07.679Z,99.90
2018-02-19T22:21:34.271Z,99.90
2018-02-19T22:24:00.913Z,99.90
2018-02-19T22:26:27.522Z,99.90
2018-02-19T22:28:54.857Z,99.90
2018-02-19T22:31:21.485Z,99.90
2018-02-19T22:33:48.744Z,99.90
2018-02-19T22:36:30.305Z,99.90
2018-02-19T22:39:10.574Z,99.90
2018-02-19T22:41:37.209Z,99.90
2018-02-19T22:44:03.871Z,99.90
2018-02-19T22:46:38.390Z,99.90
2018-02-19T22:49:04.986Z,99.90
2018-02-19T22:51:31.612Z,99.90
2018-02-19T22:53:58.227Z,99.90
2018-02-19T22:56:24.959Z,99.90
2018-02-19T22:58:52.446Z,99.90
2018-02-19T23:01:19.112Z,99.90
2018-02-19T23:03:45.720Z,99.90
2018-02-19T23:06:12.360Z,99.90
2018-02-19T23:08:39.136Z,99.90
2018-02-19T23:11:05.800Z,99.90
2018-02-19T23:13:32.421Z,99.90
2018-02-19T23:15:59.042Z,99.90
2018-02-19T23:18:26.374Z,99.90
2018-02-19T23:20:52.993Z,99.90
2018-02-19T23:23:19.606Z,99.90
2018-02-19T23:25:46.205Z,99.90
2018-02-19T23:28:12.811Z,99.90
2018-02-19T23:30:39.427Z,99.90
2018-02-19T23:33:05.998Z,99.90
2018-02-19T23:35:32.660Z,99.90
2018-02-19T23:37:59.281Z,99.90
2018-02-19T23:40:25.971Z,99.90
2018-02-19T23:42:52.653Z,99.90
2018-02-19T23:45:19.312Z,99.90
2018-02-19T23:47:45.971Z,99.90
2018-02-19T23:50:12.678Z,99.90
